Time;durP1;ratioP1;P1;durP2;ratioP2;P2;SDS_P1;SDS_P2;PMS_P1;PMS_P2;Temp;Humidity;BMP_temperature;BMP_pressure;BME280_temperature;BME280_humidity;BME280_pressure;Samples;Min_cycle;Max_cycle;Signal;HPM_P1;HPM_P2
2023/09/25 00:00:30;;;;;;;;;;;;;;;;;;6341897;28;19919;-73
2023/09/25 00:03:31;;;;;;;;;;;;;;;;;;6362051;28;19934;-74
2023/09/25 00:06:33;;;;;;;;;;;;;;;;;;6354253;28;20438;-74
2023/09/25 00:09:34;;;;;;;;;;;;;;;;;;6353930;28;20433;-74
2023/09/25 00:12:34;;;;;;;;;;;;;;;;;;6344663;28;19911;-74
2023/09/25 00:15:34;;;;;;;;;;;;;;;;;;6352525;28;19915;-74
2023/09/25 00:18:35;;;;;;;;;;;;;;;;;;6354395;28;19915;-74
2023/09/25 00:21:35;;;;;;;;;;;;;;;;;;6358717;28;19911;-73
2023/09/25 00:24:35;;;;;;;;;;;;;;;;;;6363316;28;19923;-74
2023/09/25 00:27:36;;;;;;;;;;;;;;;;;;6362081;28;19912;-74
2023/09/25 00:30:36;;;;;;;;;;;;;;;;;;6361344;28;19915;-74
2023/09/25 00:33:37;;;;;;;;;;;;;;;;;;6363829;27;19961;-74
2023/09/25 00:36:37;;;;;;;;;;;;;;;;;;6346966;27;19946;-74
2023/09/25 00:39:37;;;;;;;;;;;;;;;;;;6364773;27;19926;-74
2023/09/25 00:42:37;;;;;;;;;;;;;;;;;;6370384;27;19926;-74
2023/09/25 00:45:40;;;;;;;;;;;;;;;;;;6345561;27;19925;-73
2023/09/25 00:48:42;;;;;;;;;;;;;;;;;;6364724;27;20273;-75
2023/09/25 00:51:42;;;;;;;;;;;;;;;;;;6362768;27;20713;-75
2023/09/25 00:54:42;;;;;;;;;;;;;;;;;;6345963;27;19923;-75
2023/09/25 00:57:43;;;;;;;;;;;;;;;;;;6348269;27;19920;-75
2023/09/25 01:00:44;;;;;;;;;;;;;;;;;;6333772;27;20370;-75
2023/09/25 01:03:45;;;;;;;;;;;;;;;;;;6336369;28;20398;-75
2023/09/25 01:06:48;;;;;;;;;;;;;;;;;;6337880;28;20340;-75
2023/09/25 01:09:49;;;;;;;;;;;;;;;;;;6336775;28;20037;-75
2023/09/25 01:12:49;;;;;;;;;;;;;;;;;;6335263;28;19916;-75
2023/09/25 01:15:49;;;;;;;;;;;;;;;;;;6342972;28;19965;-75
2023/09/25 01:18:49;;;;;;;;;;;;;;;;;;6320564;28;19966;-75
2023/09/25 01:21:49;;;;;;;;;;;;;;;;;;6333654;28;19916;-73
2023/09/25 01:24:49;;;;;;;;;;;;;;;;;;6334082;28;19920;-74
2023/09/25 01:27:49;;;;;;;;;;;;;;;;;;6317156;28;19912;-73
2023/09/25 01:30:53;;;;;;;;;;;;;;;;;;6336077;28;19922;-73
2023/09/25 01:33:53;;;;;;;;;;;;;;;;;;6338307;28;20010;-73
2023/09/25 01:36:54;;;;;;;;;;;;;;;;;;6339261;28;19916;-75
2023/09/25 01:39:55;;;;;;;;;;;;;;;;;;6335294;28;19929;-75
2023/09/25 01:42:56;;;;;;;;;;;;;;;;;;6337156;28;19926;-73
2023/09/25 01:45:56;;;;;;;;;;;;;;;;;;6315233;28;19971;-74
2023/09/25 01:48:56;;;;;;;;;;;;;;;;;;6335207;28;19919;-73
2023/09/25 01:51:56;;;;;;;;;;;;;;;;;;6319561;28;20756;-74
2023/09/25 01:54:57;;;;;;;;;;;;;;;;;;6335947;28;20328;-74
2023/09/25 01:57:57;;;;;;;;;;;;;;;;;;6336774;28;19919;-74
2023/09/25 02:00:58;;;;;;;;;;;;;;;;;;6334049;28;19947;-73
2023/09/25 02:03:58;;;;;;;;;;;;;;;;;;6312978;28;20668;-74
2023/09/25 02:06:59;;;;;;;;;;;;;;;;;;6337719;28;20390;-74
2023/09/25 02:09:59;;;;;;;;;;;;;;;;;;6319404;28;19923;-73
2023/09/25 02:12:59;;;;;;;;;;;;;;;;;;6315545;28;20475;-74
2023/09/25 02:15:59;;;;;;;;;;;;;;;;;;6332647;28;20246;-74
2023/09/25 02:19:00;;;;;;;;;;;;;;;;;;6331820;28;20347;-74
2023/09/25 02:22:00;;;;;;;;;;;;;;;;;;6331301;28;19912;-74
2023/09/25 02:25:00;;;;;;;;;;;;;;;;;;6329303;28;19947;-74
2023/09/25 02:28:00;;;;;;;;;;;;;;;;;;6329744;28;19920;-73
2023/09/25 02:31:00;;;;;;;;;;;;;;;;;;6328830;28;20012;-73
2023/09/25 02:34:00;;;;;;;;;;;;;;;;;;6328743;28;20022;-73
2023/09/25 02:37:00;;;;;;;;;;;;;;;;;;6333999;28;19922;-73
2023/09/25 02:40:00;;;;;;;;;;;;;;;;;;6329757;28;19916;-73
2023/09/25 02:43:01;;;;;;;;;;;;;;;;;;6316066;28;19922;-74
2023/09/25 02:46:01;;;;;;;;;;;;;;;;;;6319437;28;20012;-74
2023/09/25 02:49:01;;;;;;;;;;;;;;;;;;5961759;28;10000384;-74
2023/09/25 02:52:01;;;;;;;;;;;;;;;;;;6318484;28;19973;-74
2023/09/25 02:55:02;;;;;;;;;;;;;;;;;;6319420;28;19961;-74
2023/09/25 02:58:02;;;;;;;;;;;;;;;;;;6336605;28;19930;-74
2023/09/25 03:01:02;;;;;;;;;;;;;;;;;;6336070;28;19927;-74
2023/09/25 03:04:03;;;;;;;;;;;;;;;;;;6329896;28;19916;-74
2023/09/25 03:07:03;;;;;;;;;;;;;;;;;;6336485;28;19969;-74
2023/09/25 03:10:03;;;;;;;;;;;;;;;;;;6318657;28;19926;-74
2023/09/25 03:13:03;;;;;;;;;;;;;;;;;;6336876;28;19916;-74
2023/09/25 03:16:04;;;;;;;;;;;;;;;;;;6341500;28;19911;-73
2023/09/25 03:19:04;;;;;;;;;;;;;;;;;;6330241;28;19974;-73
2023/09/25 03:22:04;;;;;;;;;;;;;;;;;;6331345;28;19919;-73
2023/09/25 03:25:05;;;;;;;;;;;;;;;;;;6335701;28;19919;-74
2023/09/25 03:28:07;;;;;;;;;;;;;;;;;;6333971;28;19916;-74
2023/09/25 03:31:07;;;;;;;;;;;;;;;;;;6335251;28;19916;-74
2023/09/25 03:34:07;;;;;;;;;;;;;;;;;;6332485;28;19933;-74
2023/09/25 03:37:07;;;;;;;;;;;;;;;;;;6332584;28;19941;-74
2023/09/25 03:40:08;;;;;;;;;;;;;;;;;;6337416;28;19920;-74
2023/09/25 03:43:08;;;;;;;;;;;;;;;;;;6334234;28;20403;-74
2023/09/25 03:46:08;;;;;;;;;;;;;;;;;;6333965;28;19927;-74
2023/09/25 03:49:09;;;;;;;;;;;;;;;;;;6314211;28;19912;-74
2023/09/25 03:52:09;;;;;;;;;;;;;;;;;;6333579;28;19920;-74
2023/09/25 03:55:09;;;;;;;;;;;;;;;;;;6335177;28;19915;-74
2023/09/25 03:58:11;;;;;;;;;;;;;;;;;;6335781;28;19920;-74
2023/09/25 04:01:11;;;;;;;;;;;;;;;;;;6337905;28;19916;-74
2023/09/25 04:04:11;;;;;;;;;;;;;;;;;;6334224;28;19920;-74
2023/09/25 04:07:11;;;;;;;;;;;;;;;;;;6336056;28;20277;-76
2023/09/25 04:10:11;;;;;;;;;;;;;;;;;;6339707;28;19911;-75
2023/09/25 04:13:11;;;;;;;;;;;;;;;;;;6343787;28;20373;-75
2023/09/25 04:16:13;;;;;;;;;;;;;;;;;;6319540;28;19911;-74
2023/09/25 04:19:14;;;;;;;;;;;;;;;;;;6339536;28;19947;-75
2023/09/25 04:22:14;;;;;;;;;;;;;;;;;;6319391;28;20064;-75
2023/09/25 04:25:19;;;;;;;;;;;;;;;;;;6337216;28;20293;-76
2023/09/25 04:28:20;;;;;;;;;;;;;;;;;;6340783;28;19912;-75
2023/09/25 04:31:20;;;;;;;;;;;;;;;;;;6320658;28;20280;-75
2023/09/25 04:34:20;;;;;;;;;;;;;;;;;;6340526;28;19919;-75
2023/09/25 04:37:20;;;;;;;;;;;;;;;;;;6339605;28;19912;-75
2023/09/25 04:40:30;;;;;;;;;;;;;;;;;;6337405;28;19912;-75
2023/09/25 04:43:32;;;;;;;;;;;;;;;;;;6343259;28;20370;-75
2023/09/25 04:46:32;;;;;;;;;;;;;;;;;;6340031;28;19916;-75
2023/09/25 04:49:32;;;;;;;;;;;;;;;;;;5979494;28;10000597;-75
2023/09/25 04:52:32;;;;;;;;;;;;;;;;;;6339252;28;19985;-75
2023/09/25 04:55:32;;;;;;;;;;;;;;;;;;6335635;28;19916;-75
2023/09/25 04:58:32;;;;;;;;;;;;;;;;;;6323737;28;19923;-75
2023/09/25 05:01:32;;;;;;;;;;;;;;;;;;6347293;28;20392;-75
2023/09/25 05:04:36;;;;;;;;;;;;;;;;;;6326873;28;19919;-75
2023/09/25 05:07:36;;;;;;;;;;;;;;;;;;6329568;28;19957;-75
2023/09/25 05:10:36;;;;;;;;;;;;;;;;;;6349710;28;19959;-75
2023/09/25 05:13:36;;;;;;;;;;;;;;;;;;6339455;28;19916;-75
2023/09/25 05:16:36;;;;;;;;;;;;;;;;;;6329408;28;19908;-75
2023/09/25 05:19:37;;;;;;;;;;;;;;;;;;6339237;28;19923;-75
2023/09/25 05:22:37;;;;;;;;;;;;;;;;;;6326055;28;19919;-74
2023/09/25 05:25:37;;;;;;;;;;;;;;;;;;6348299;28;19911;-74
2023/09/25 05:28:37;;;;;;;;;;;;;;;;;;6350205;28;19926;-75
2023/09/25 05:31:37;;;;;;;;;;;;;;;;;;6348509;28;19918;-74
2023/09/25 05:34:39;;;;;;;;;;;;;;;;;;6345899;28;19938;-74
2023/09/25 05:37:39;;;;;;;;;;;;;;;;;;6348979;28;20341;-75
2023/09/25 05:40:39;;;;;;;;;;;;;;;;;;6326845;28;19912;-75
2023/09/25 05:43:39;;;;;;;;;;;;;;;;;;6345755;28;19935;-75
2023/09/25 05:46:39;;;;;;;;;;;;;;;;;;6349366;28;20322;-74
2023/09/25 05:49:40;;;;;;;;;;;;;;;;;;6327251;28;20365;-75
2023/09/25 05:52:40;;;;;;;;;;;;;;;;;;6342475;28;20529;-75
2023/09/25 05:55:41;;;;;;;;;;;;;;;;;;6326892;28;19928;-77
2023/09/25 05:58:41;;;;;;;;;;;;;;;;;;6318068;28;19920;-77
2023/09/25 06:01:42;;;;;;;;;;;;;;;;;;6323190;28;19908;-77
2023/09/25 06:04:43;;;;;;;;;;;;;;;;;;6326999;28;19927;-76
2023/09/25 06:07:43;;;;;;;;;;;;;;;;;;6347755;28;19916;-76
2023/09/25 06:10:44;;;;;;;;;;;;;;;;;;6329869;28;19929;-76
2023/09/25 06:13:44;;;;;;;;;;;;;;;;;;6319755;28;19916;-75
2023/09/25 06:16:44;;;;;;;;;;;;;;;;;;6329112;28;20403;-74
2023/09/25 06:19:44;;;;;;;;;;;;;;;;;;6347310;28;19916;-75
2023/09/25 06:22:44;;;;;;;;;;;;;;;;;;6341660;28;19919;-77
2023/09/25 06:25:45;;;;;;;;;;;;;;;;;;6343773;28;20029;-76
2023/09/25 06:28:45;;;;;;;;;;;;;;;;;;6348057;28;20072;-76
2023/09/25 06:31:45;;;;;;;;;;;;;;;;;;6332694;28;19913;-75
2023/09/25 06:34:46;;;;;;;;;;;;;;;;;;6324982;28;19912;-75
2023/09/25 06:37:47;;;;;;;;;;;;;;;;;;6330643;28;19924;-75
2023/09/25 06:40:47;;;;;;;;;;;;;;;;;;6335389;28;20340;-75
2023/09/25 06:43:47;;;;;;;;;;;;;;;;;;6344666;28;19923;-75
2023/09/25 06:46:47;;;;;;;;;;;;;;;;;;6328541;28;19912;-76
2023/09/25 06:49:48;;;;;;;;;;;;;;;;;;6344484;28;19923;-76
2023/09/25 06:52:48;;;;;;;;;;;;;;;;;;6333378;28;19923;-76
2023/09/25 06:55:50;;;;;;;;;;;;;;;;;;6347118;28;20315;-76
2023/09/25 06:58:51;;;;;;;;;;;;;;;;;;6329502;28;19927;-75
2023/09/25 07:01:52;;;;;;;;;;;;;;;;;;6348089;28;20007;-76
2023/09/25 07:04:52;;;;;;;;;;;;;;;;;;6330729;28;19912;-75
2023/09/25 07:07:52;;;;;;;;;;;;;;;;;;6334915;28;20292;-75
2023/09/25 07:10:52;;;;;;;;;;;;;;;;;;6340305;28;20301;-76
2023/09/25 07:13:53;;;;;;;;;;;;;;;;;;6329424;28;19920;-76
2023/09/25 07:16:53;;;;;;;;;;;;;;;;;;6355074;28;19919;-76
2023/09/25 07:19:55;;;;;;;;;;;;;;;;;;6338559;28;20257;-76
2023/09/25 07:22:55;;;;;;;;;;;;;;;;;;6338676;28;20289;-76
2023/09/25 07:25:55;;;;;;;;;;;;;;;;;;6350928;28;19912;-76
2023/09/25 07:28:55;;;;;;;;;;;;;;;;;;6343068;28;20389;-77
2023/09/25 07:31:55;;;;;;;;;;;;;;;;;;6321668;28;19918;-76
2023/09/25 07:34:57;;;;;;;;;;;;;;;;;;6338408;28;20373;-76
2023/09/25 07:37:57;;;;;;;;;;;;;;;;;;6330743;28;19999;-76
2023/09/25 07:40:57;;;;;;;;;;;;;;;;;;6346196;28;19957;-75
2023/09/25 07:43:59;;;;;;;;;;;;;;;;;;6333780;28;19920;-75
2023/09/25 07:47:00;;;;;;;;;;;;;;;;;;6335803;28;19912;-75
2023/09/25 07:50:00;;;;;;;;;;;;;;;;;;6315791;28;19915;-75
2023/09/25 07:53:00;;;;;;;;;;;;;;;;;;6327952;28;20003;-76
2023/09/25 07:56:03;;;;;;;;;;;;;;;;;;6346124;28;20266;-75
2023/09/25 07:59:03;;;;;;;;;;;;;;;;;;6344843;27;19930;-75
2023/09/25 08:02:04;;;;;;;;;;;;;;;;;;6336700;28;19912;-75
2023/09/25 08:05:07;;;;;;;;;;;;;;;;;;6317336;28;19951;-76
2023/09/25 08:08:10;;;;;;;;;;;;;;;;;;6346061;28;19911;-76
2023/09/25 08:11:14;;;;;;;;;;;;;;;;;;6325636;28;19919;-76
2023/09/25 08:14:15;;;;;;;;;;;;;;;;;;6320414;28;20011;-76
2023/09/25 08:17:15;;;;;;;;;;;;;;;;;;6344372;28;20386;-76
2023/09/25 08:20:20;;;;;;;;;;;;;;;;;;6338811;28;20363;-76
2023/09/25 08:23:20;;;;;;;;;;;;;;;;;;6341301;28;19927;-76
2023/09/25 08:26:21;;;;;;;;;;;;;;;;;;6344448;28;20235;-77
2023/09/25 08:29:21;;;;;;;;;;;;;;;;;;6330722;28;19918;-76
2023/09/25 08:32:21;;;;;;;;;;;;;;;;;;6336719;28;20009;-76
2023/09/25 08:35:21;;;;;;;;;;;;;;;;;;6320695;28;19920;-74
2023/09/25 08:38:22;;;;;;;;;;;;;;;;;;6322699;28;19912;-76
2023/09/25 08:41:22;;;;;;;;;;;;;;;;;;6304400;28;20329;-76
2023/09/25 08:44:22;;;;;;;;;;;;;;;;;;6316043;28;20327;-75
2023/09/25 08:47:24;;;;;;;;;;;;;;;;;;6336774;28;19966;-76
2023/09/25 08:50:24;;;;;;;;;;;;;;;;;;6318683;28;19916;-76
2023/09/25 08:53:24;;;;;;;;;;;;;;;;;;6330569;28;19912;-75
2023/09/25 08:56:24;;;;;;;;;;;;;;;;;;6331194;28;19908;-75
2023/09/25 08:59:25;;;;;;;;;;;;;;;;;;6348913;27;19920;-74
2023/09/25 09:02:25;;;;;;;;;;;;;;;;;;6333134;28;19923;-75
2023/09/25 09:05:25;;;;;;;;;;;;;;;;;;6341266;28;19915;-76
2023/09/25 09:08:25;;;;;;;;;;;;;;;;;;6327909;28;19999;-74
2023/09/25 09:11:25;;;;;;;;;;;;;;;;;;6327866;28;19916;-74
2023/09/25 09:14:25;;;;;;;;;;;;;;;;;;6325444;28;19912;-75
2023/09/25 09:17:25;;;;;;;;;;;;;;;;;;6336509;27;19975;-76
2023/09/25 09:20:25;;;;;;;;;;;;;;;;;;6328555;28;19929;-76
2023/09/25 09:23:26;;;;;;;;;;;;;;;;;;6326748;28;19920;-76
2023/09/25 09:26:26;;;;;;;;;;;;;;;;;;6338635;28;19911;-75
2023/09/25 09:29:26;;;;;;;;;;;;;;;;;;6335281;28;20274;-75
2023/09/25 09:32:27;;;;;;;;;;;;;;;;;;6336180;28;19911;-76
2023/09/25 09:35:27;;;;;;;;;;;;;;;;;;6330386;28;19919;-75
2023/09/25 09:38:28;;;;;;;;;;;;;;;;;;6332020;28;19951;-76
2023/09/25 09:41:28;;;;;;;;;;;;;;;;;;6332782;28;20410;-77
2023/09/25 09:44:29;;;;;;;;;;;;;;;;;;6345124;28;19923;-76
2023/09/25 09:47:29;;;;;;;;;;;;;;;;;;6320892;28;19926;-76
2023/09/25 09:50:30;;;;;;;;;;;;;;;;;;6327054;28;19969;-76
2023/09/25 09:53:30;;;;;;;;;;;;;;;;;;6332803;27;20389;-76
2023/09/25 09:56:32;;;;;;;;;;;;;;;;;;6347489;27;19919;-76
2023/09/25 09:59:32;;;;;;;;;;;;;;;;;;6345585;28;19920;-76
2023/09/25 10:02:34;;;;;;;;;;;;;;;;;;6331746;28;19909;-78
2023/09/25 10:05:34;;;;;;;;;;;;;;;;;;6320612;28;19930;-76
2023/09/25 10:08:34;;;;;;;;;;;;;;;;;;6354247;28;20410;-77
2023/09/25 10:11:34;;;;;;;;;;;;;;;;;;6362528;28;19959;-76
2023/09/25 10:14:34;;;;;;;;;;;;;;;;;;6324099;28;20274;-78
2023/09/25 10:17:34;;;;;;;;;;;;;;;;;;6338490;28;19912;-77
2023/09/25 10:20:36;;;;;;;;;;;;;;;;;;6345646;28;19971;-76
2023/09/25 10:23:36;;;;;;;;;;;;;;;;;;6341267;28;19994;-75
2023/09/25 10:26:38;;;;;;;;;;;;;;;;;;6348906;28;19934;-76
2023/09/25 10:29:38;;;;;;;;;;;;;;;;;;6342470;27;19922;-76
2023/09/25 10:32:40;;;;;;;;;;;;;;;;;;6337871;28;20306;-75
2023/09/25 10:35:40;;;;;;;;;;;;;;;;;;6340208;28;19912;-75
2023/09/25 10:38:41;;;;;;;;;;;;;;;;;;6352612;28;19961;-74
2023/09/25 10:41:42;;;;;;;;;;;;;;;;;;6355105;28;19981;-75
2023/09/25 10:44:42;;;;;;;;;;;;;;;;;;6352442;28;20078;-75
2023/09/25 10:47:43;;;;;;;;;;;;;;;;;;6356813;28;20014;-76
2023/09/25 10:50:43;;;;;;;;;;;;;;;;;;6338076;28;19916;-76
2023/09/25 10:53:43;;;;;;;;;;;;;;;;;;6344150;28;20357;-75
2023/09/25 10:56:44;;;;;;;;;;;;;;;;;;6328656;28;20279;-76
2023/09/25 10:59:44;;;;;;;;;;;;;;;;;;6348874;27;19965;-75
2023/09/25 11:02:44;;;;;;;;;;;;;;;;;;6370246;27;20021;-75
2023/09/25 11:05:44;;;;;;;;;;;;;;;;;;6361600;27;19922;-74
2023/09/25 11:08:44;;;;;;;;;;;;;;;;;;6353290;27;19915;-74
2023/09/25 11:11:44;;;;;;;;;;;;;;;;;;6370799;27;20277;-75
2023/09/25 11:14:45;;;;;;;;;;;;;;;;;;6366936;27;19923;-74
2023/09/25 11:17:45;;;;;;;;;;;;;;;;;;6373645;27;19934;-75
2023/09/25 11:20:45;;;;;;;;;;;;;;;;;;6359668;27;19912;-74
2023/09/25 11:23:46;;;;;;;;;;;;;;;;;;6371695;27;19911;-74
2023/09/25 11:26:46;;;;;;;;;;;;;;;;;;6372564;27;19933;-75
2023/09/25 11:29:46;;;;;;;;;;;;;;;;;;6381175;27;19916;-74
2023/09/25 11:32:46;;;;;;;;;;;;;;;;;;6366629;27;19975;-74
2023/09/25 11:35:49;;;;;;;;;;;;;;;;;;6353206;27;19922;-74
2023/09/25 11:38:52;;;;;;;;;;;;;;;;;;6350672;27;20002;-75
2023/09/25 11:41:54;;;;;;;;;;;;;;;;;;6368536;27;20487;-75
2023/09/25 11:44:54;;;;;;;;;;;;;;;;;;6347262;28;19953;-75
2023/09/25 11:47:54;;;;;;;;;;;;;;;;;;6365569;27;19907;-75
2023/09/25 11:50:56;;;;;;;;;;;;;;;;;;6369250;27;19915;-75
2023/09/25 11:53:57;;;;;;;;;;;;;;;;;;6369230;27;19915;-76
2023/09/25 11:56:58;;;;;;;;;;;;;;;;;;6356297;27;19933;-75
2023/09/25 11:59:58;;;;;;;;;;;;;;;;;;6361713;27;19927;-75
2023/09/25 12:02:58;;;;;;;;;;;;;;;;;;6348033;28;20322;-75
2023/09/25 12:05:58;;;;;;;;;;;;;;;;;;6349080;27;19916;-75
2023/09/25 12:09:01;;;;;;;;;;;;;;;;;;6367893;28;20089;-76
2023/09/25 12:12:03;;;;;;;;;;;;;;;;;;6350122;28;19915;-75
2023/09/25 12:15:03;;;;;;;;;;;;;;;;;;6355604;28;19920;-75
2023/09/25 12:18:03;;;;;;;;;;;;;;;;;;5993307;28;10000253;-75
2023/09/25 12:21:03;;;;;;;;;;;;;;;;;;6343405;28;20356;-75
2023/09/25 12:24:05;;;;;;;;;;;;;;;;;;6367174;28;19922;-75
2023/09/25 12:27:05;;;;;;;;;;;;;;;;;;6339931;28;19912;-75
2023/09/25 12:30:07;;;;;;;;;;;;;;;;;;6364653;27;19975;-76
2023/09/25 12:33:07;;;;;;;;;;;;;;;;;;6372104;27;19915;-75
2023/09/25 12:36:07;;;;;;;;;;;;;;;;;;6372721;27;19985;-76
2023/09/25 12:39:08;;;;;;;;;;;;;;;;;;6355197;27;20361;-75
2023/09/25 12:42:09;;;;;;;;;;;;;;;;;;6369152;27;19922;-75
2023/09/25 12:45:09;;;;;;;;;;;;;;;;;;6367672;27;19908;-75
2023/09/25 12:48:09;;;;;;;;;;;;;;;;;;6371793;27;20401;-75
2023/09/25 12:51:10;;;;;;;;;;;;;;;;;;6352469;27;19980;-74
2023/09/25 12:54:10;;;;;;;;;;;;;;;;;;6372256;27;20018;-76
2023/09/25 12:57:10;;;;;;;;;;;;;;;;;;6363298;27;19912;-75
2023/09/25 13:00:10;;;;;;;;;;;;;;;;;;6365451;27;19924;-75
2023/09/25 13:03:10;;;;;;;;;;;;;;;;;;6362900;27;19912;-75
2023/09/25 13:06:10;;;;;;;;;;;;;;;;;;6345883;28;19911;-75
2023/09/25 13:09:11;;;;;;;;;;;;;;;;;;6329239;28;19912;-76
2023/09/25 13:12:11;;;;;;;;;;;;;;;;;;6348005;28;20419;-75
2023/09/25 13:15:12;;;;;;;;;;;;;;;;;;6335467;28;20022;-76
2023/09/25 13:18:12;;;;;;;;;;;;;;;;;;6335187;28;20370;-76
2023/09/25 13:21:15;;;;;;;;;;;;;;;;;;6301896;28;20108;-76
2023/09/25 13:24:15;;;;;;;;;;;;;;;;;;6328611;28;19919;-76
2023/09/25 13:27:15;;;;;;;;;;;;;;;;;;6330808;28;20397;-76
2023/09/25 13:30:18;;;;;;;;;;;;;;;;;;6325206;28;19985;-76
2023/09/25 13:33:19;;;;;;;;;;;;;;;;;;5981374;27;9999734;-75
2023/09/25 13:36:20;;;;;;;;;;;;;;;;;;6317081;28;19923;-75
2023/09/25 13:39:20;;;;;;;;;;;;;;;;;;6334534;28;20286;-75
2023/09/25 13:42:20;;;;;;;;;;;;;;;;;;6318016;28;19919;-75
2023/09/25 13:45:21;;;;;;;;;;;;;;;;;;6349107;28;19918;-76
2023/09/25 13:48:22;;;;;;;;;;;;;;;;;;6339943;28;19957;-76
2023/09/25 13:51:22;;;;;;;;;;;;;;;;;;6328708;28;19912;-76
2023/09/25 13:54:22;;;;;;;;;;;;;;;;;;6328904;28;19916;-76
2023/09/25 13:57:22;;;;;;;;;;;;;;;;;;6349924;28;19908;-76
2023/09/25 14:00:23;;;;;;;;;;;;;;;;;;6351403;27;19920;-76
2023/09/25 14:03:24;;;;;;;;;;;;;;;;;;6345638;28;19922;-76
2023/09/25 14:06:24;;;;;;;;;;;;;;;;;;6333967;28;19919;-76
2023/09/25 14:09:25;;;;;;;;;;;;;;;;;;6336937;28;20034;-76
2023/09/25 14:12:25;;;;;;;;;;;;;;;;;;6348820;28;19935;-80
2023/09/25 14:15:26;;;;;;;;;;;;;;;;;;6325113;28;20053;-80
2023/09/25 14:18:26;;;;;;;;;;;;;;;;;;6342021;28;19916;-80
2023/09/25 14:21:26;;;;;;;;;;;;;;;;;;6331540;28;19912;-79
2023/09/25 14:24:27;;;;;;;;;;;;;;;;;;6343299;28;19921;-80
2023/09/25 14:27:27;;;;;;;;;;;;;;;;;;6336415;28;19941;-80
2023/09/25 14:30:28;;;;;;;;;;;;;;;;;;6340358;28;19912;-80
2023/09/25 14:33:34;;;;;;;;;;;;;;;;;;6346328;28;20256;-79
2023/09/25 14:36:34;;;;;;;;;;;;;;;;;;6336813;28;19915;-79
2023/09/25 14:39:35;;;;;;;;;;;;;;;;;;6324933;28;20307;-79
2023/09/25 14:42:35;;;;;;;;;;;;;;;;;;6330635;28;19919;-79
2023/09/25 14:45:35;;;;;;;;;;;;;;;;;;6348139;28;19926;-79
2023/09/25 14:48:35;;;;;;;;;;;;;;;;;;6311774;28;19987;-79
2023/09/25 14:51:35;;;;;;;;;;;;;;;;;;6323277;28;19912;-78
2023/09/25 14:54:35;;;;;;;;;;;;;;;;;;6322375;28;19908;-77
2023/09/25 14:57:37;;;;;;;;;;;;;;;;;;6333026;28;19908;-78
2023/09/25 15:00:38;;;;;;;;;;;;;;;;;;6319382;28;19920;-78
2023/09/25 15:03:38;;;;;;;;;;;;;;;;;;6337387;28;19962;-78
2023/09/25 15:06:39;;;;;;;;;;;;;;;;;;6326726;28;19911;-78
2023/09/25 15:09:40;;;;;;;;;;;;;;;;;;6321464;28;19916;-78
2023/09/25 15:12:40;;;;;;;;;;;;;;;;;;6325842;28;20366;-78
2023/09/25 15:15:40;;;;;;;;;;;;;;;;;;6345908;27;19930;-75
2023/09/25 15:18:41;;;;;;;;;;;;;;;;;;6330087;28;19943;-76
2023/09/25 15:21:41;;;;;;;;;;;;;;;;;;6324623;27;19912;-75
2023/09/25 15:24:41;;;;;;;;;;;;;;;;;;6335714;28;19912;-75
2023/09/25 15:27:43;;;;;;;;;;;;;;;;;;6342735;28;19923;-74
2023/09/25 15:30:43;;;;;;;;;;;;;;;;;;6329224;28;19920;-75
2023/09/25 15:33:43;;;;;;;;;;;;;;;;;;5992122;27;9999862;-74
2023/09/25 15:36:43;;;;;;;;;;;;;;;;;;6332407;28;20377;-74
2023/09/25 15:39:53;;;;;;;;;;;;;;;;;;6333630;28;19912;-78
2023/09/25 15:42:53;;;;;;;;;;;;;;;;;;6346452;28;20095;-74
2023/09/25 15:45:53;;;;;;;;;;;;;;;;;;6325111;28;19916;-75
2023/09/25 15:48:54;;;;;;;;;;;;;;;;;;6326054;28;19920;-75
2023/09/25 15:51:54;;;;;;;;;;;;;;;;;;6334170;28;19919;-74
2023/09/25 15:54:55;;;;;;;;;;;;;;;;;;6321666;28;19908;-75
2023/09/25 15:57:55;;;;;;;;;;;;;;;;;;6330364;28;20426;-74
2023/09/25 16:00:56;;;;;;;;;;;;;;;;;;6327059;28;19920;-74
2023/09/25 16:03:56;;;;;;;;;;;;;;;;;;6344344;28;20072;-74
2023/09/25 16:06:56;;;;;;;;;;;;;;;;;;6304382;28;20347;-75
2023/09/25 16:09:56;;;;;;;;;;;;;;;;;;6323801;28;20406;-75
2023/09/25 16:12:56;;;;;;;;;;;;;;;;;;6321654;28;19908;-77
2023/09/25 16:15:57;;;;;;;;;;;;;;;;;;6330824;28;20422;-74
2023/09/25 16:18:57;;;;;;;;;;;;;;;;;;6326247;28;20002;-76
2023/09/25 16:21:57;;;;;;;;;;;;;;;;;;6336872;28;19916;-76
2023/09/25 16:24:57;;;;;;;;;;;;;;;;;;6319851;28;19923;-76
2023/09/25 16:27:57;;;;;;;;;;;;;;;;;;6333250;28;20353;-76
2023/09/25 16:30:57;;;;;;;;;;;;;;;;;;6339890;28;20255;-76
2023/09/25 16:33:57;;;;;;;;;;;;;;;;;;6342571;28;20350;-76
2023/09/25 16:36:58;;;;;;;;;;;;;;;;;;6330991;28;19997;-76
2023/09/25 16:39:59;;;;;;;;;;;;;;;;;;6319865;28;19911;-76
2023/09/25 16:42:59;;;;;;;;;;;;;;;;;;6333705;28;19908;-76
2023/09/25 16:45:59;;;;;;;;;;;;;;;;;;6325586;28;19942;-76
2023/09/25 16:48:59;;;;;;;;;;;;;;;;;;6314214;28;19916;-76
2023/09/25 16:51:59;;;;;;;;;;;;;;;;;;6320753;28;19916;-76
2023/09/25 16:55:00;;;;;;;;;;;;;;;;;;6333333;28;19990;-76
2023/09/25 16:58:00;;;;;;;;;;;;;;;;;;6314536;28;19920;-76
2023/09/25 17:01:00;;;;;;;;;;;;;;;;;;6331002;28;19920;-75
2023/09/25 17:04:00;;;;;;;;;;;;;;;;;;6341377;28;20377;-76
2023/09/25 17:07:00;;;;;;;;;;;;;;;;;;6317566;28;19957;-76
2023/09/25 17:10:05;;;;;;;;;;;;;;;;;;6322405;28;19916;-75
2023/09/25 17:13:08;;;;;;;;;;;;;;;;;;6343818;28;20011;-75
2023/09/25 17:16:09;;;;;;;;;;;;;;;;;;6346542;28;20006;-76
2023/09/25 17:19:09;;;;;;;;;;;;;;;;;;6330089;28;20418;-76
2023/09/25 17:22:10;;;;;;;;;;;;;;;;;;6320621;28;19916;-75
2023/09/25 17:25:13;;;;;;;;;;;;;;;;;;6348431;28;19924;-75
2023/09/25 17:28:13;;;;;;;;;;;;;;;;;;6341347;28;20011;-75
2023/09/25 17:31:13;;;;;;;;;;;;;;;;;;6344475;28;19991;-75
2023/09/25 17:34:13;;;;;;;;;;;;;;;;;;6323772;28;20012;-75
2023/09/25 17:37:14;;;;;;;;;;;;;;;;;;6305684;28;20381;-75
2023/09/25 17:40:14;;;;;;;;;;;;;;;;;;6328170;28;19912;-74
2023/09/25 17:43:14;;;;;;;;;;;;;;;;;;6344343;28;19995;-75
2023/09/25 17:46:15;;;;;;;;;;;;;;;;;;6348473;28;20452;-76
2023/09/25 17:49:15;;;;;;;;;;;;;;;;;;6334043;28;20514;-77
2023/09/25 17:52:15;;;;;;;;;;;;;;;;;;6325812;28;20049;-76
2023/09/25 17:55:16;;;;;;;;;;;;;;;;;;6337137;28;19957;-75
2023/09/25 17:58:16;;;;;;;;;;;;;;;;;;6330969;28;19920;-75
2023/09/25 18:01:16;;;;;;;;;;;;;;;;;;6365222;27;20474;-76
2023/09/25 18:04:16;;;;;;;;;;;;;;;;;;6357705;27;20084;-76
2023/09/25 18:07:16;;;;;;;;;;;;;;;;;;6373012;27;19919;-76
2023/09/25 18:10:17;;;;;;;;;;;;;;;;;;6354559;27;19934;-75
2023/09/25 18:13:19;;;;;;;;;;;;;;;;;;6354164;27;19911;-76
2023/09/25 18:16:19;;;;;;;;;;;;;;;;;;6372967;27;20010;-76
2023/09/25 18:19:20;;;;;;;;;;;;;;;;;;6365777;27;19980;-76
2023/09/25 18:22:20;;;;;;;;;;;;;;;;;;6348279;28;19919;-76
2023/09/25 18:25:20;;;;;;;;;;;;;;;;;;6350959;27;19931;-76
2023/09/25 18:28:20;;;;;;;;;;;;;;;;;;6366310;27;19916;-76
2023/09/25 18:31:20;;;;;;;;;;;;;;;;;;6352042;27;19911;-76
2023/09/25 18:34:23;;;;;;;;;;;;;;;;;;6344854;27;19916;-76
2023/09/25 18:37:23;;;;;;;;;;;;;;;;;;6353972;27;20395;-75
2023/09/25 18:40:24;;;;;;;;;;;;;;;;;;6013774;27;10000488;-75
2023/09/25 18:43:24;;;;;;;;;;;;;;;;;;6367545;27;19916;-75
2023/09/25 18:46:27;;;;;;;;;;;;;;;;;;6370816;27;19916;-75
2023/09/25 18:49:27;;;;;;;;;;;;;;;;;;6338320;27;19921;-76
2023/09/25 18:52:28;;;;;;;;;;;;;;;;;;6367845;27;20281;-74
2023/09/25 18:55:30;;;;;;;;;;;;;;;;;;6370938;27;19979;-74
2023/09/25 18:58:30;;;;;;;;;;;;;;;;;;6361716;27;19919;-75
2023/09/25 19:01:30;;;;;;;;;;;;;;;;;;6346668;27;20313;-75
2023/09/25 19:04:30;;;;;;;;;;;;;;;;;;6009218;27;9999712;-75
2023/09/25 19:07:31;;;;;;;;;;;;;;;;;;6368750;27;19912;-76
2023/09/25 19:10:32;;;;;;;;;;;;;;;;;;6373184;27;19952;-76
2023/09/25 19:13:32;;;;;;;;;;;;;;;;;;6366743;27;19907;-74
2023/09/25 19:16:32;;;;;;;;;;;;;;;;;;6373530;27;20284;-76
2023/09/25 19:19:32;;;;;;;;;;;;;;;;;;6359214;27;19943;-76
2023/09/25 19:22:33;;;;;;;;;;;;;;;;;;6359897;27;19908;-76
2023/09/25 19:25:33;;;;;;;;;;;;;;;;;;6371180;27;19915;-76
2023/09/25 19:28:33;;;;;;;;;;;;;;;;;;6350205;27;19920;-76
2023/09/25 19:31:33;;;;;;;;;;;;;;;;;;6369856;27;20342;-76
2023/09/25 19:34:34;;;;;;;;;;;;;;;;;;6371004;27;19980;-76
2023/09/25 19:37:35;;;;;;;;;;;;;;;;;;6369915;27;19907;-76
2023/09/25 19:40:35;;;;;;;;;;;;;;;;;;6363628;27;19934;-76
2023/09/25 19:43:35;;;;;;;;;;;;;;;;;;6371366;27;20445;-76
2023/09/25 19:46:35;;;;;;;;;;;;;;;;;;6372516;27;20369;-76
2023/09/25 19:49:36;;;;;;;;;;;;;;;;;;6337846;28;19998;-76
2023/09/25 19:52:36;;;;;;;;;;;;;;;;;;6366779;27;20379;-76
2023/09/25 19:55:37;;;;;;;;;;;;;;;;;;6365619;27;19922;-77
2023/09/25 19:58:37;;;;;;;;;;;;;;;;;;6362182;27;20423;-75
2023/09/25 20:01:37;;;;;;;;;;;;;;;;;;6366078;27;20018;-76
2023/09/25 20:04:37;;;;;;;;;;;;;;;;;;6370713;27;19920;-76
2023/09/25 20:07:37;;;;;;;;;;;;;;;;;;6351252;27;19982;-75
2023/09/25 20:10:37;;;;;;;;;;;;;;;;;;6364001;27;20006;-75
2023/09/25 20:13:37;;;;;;;;;;;;;;;;;;6361065;28;20002;-76
2023/09/25 20:16:37;;;;;;;;;;;;;;;;;;6360916;28;19911;-76
2023/09/25 20:19:37;;;;;;;;;;;;;;;;;;6362905;28;19912;-75
2023/09/25 20:22:38;;;;;;;;;;;;;;;;;;6350904;28;19911;-74
2023/09/25 20:25:38;;;;;;;;;;;;;;;;;;6351911;28;19915;-76
2023/09/25 20:28:39;;;;;;;;;;;;;;;;;;6368931;28;19919;-75